createdAt,value
2022-09-09T00:02:29.066Z,13.91
2022-09-09T00:07:50.633Z,13.87
2022-09-09T00:13:10.728Z,13.84
2022-09-09T00:18:15.629Z,13.86
2022-09-09T00:23:30.922Z,13.82
2022-09-09T00:28:35.360Z,13.90
2022-09-09T00:33:37.292Z,13.81
2022-09-09T00:38:42.393Z,13.75
2022-09-09T00:43:47.520Z,13.68
2022-09-09T00:48:52.401Z,13.63
2022-09-09T00:54:04.278Z,13.56
2022-09-09T00:59:13.213Z,13.59
2022-09-09T01:04:17.517Z,13.53
2022-09-09T01:09:23.498Z,13.58
2022-09-09T01:14:31.588Z,13.45
2022-09-09T01:19:50.240Z,13.38
2022-09-09T01:24:54.561Z,13.36
2022-09-09T01:29:55.914Z,13.23
2022-09-09T01:34:57.217Z,13.23
2022-09-09T01:39:58.784Z,13.16
2022-09-09T01:45:00.153Z,13.21
2022-09-09T01:50:02.128Z,13.16
2022-09-09T01:55:03.583Z,13.09
2022-09-09T02:00:07.973Z,12.99
2022-09-09T02:05:12.263Z,12.97
2022-09-09T02:10:19.828Z,13.02
2022-09-09T02:15:27.895Z,12.92
2022-09-09T02:20:35.110Z,12.98
2022-09-09T02:25:37.528Z,12.87
2022-09-09T02:30:40.178Z,12.84
2022-09-09T02:35:42.939Z,12.78
2022-09-09T02:40:44.267Z,12.77
2022-09-09T02:46:05.955Z,12.79
2022-09-09T02:51:11.399Z,12.84
2022-09-09T02:56:21.525Z,12.68
2022-09-09T03:01:22.999Z,12.77
2022-09-09T03:06:24.400Z,12.65
2022-09-09T03:11:25.784Z,12.64
2022-09-09T03:16:27.363Z,12.63
2022-09-09T03:21:28.718Z,12.65
2022-09-09T03:26:31.396Z,12.61
2022-09-09T03:31:33.463Z,12.74
2022-09-09T03:36:34.815Z,12.81
2022-09-09T03:41:36.103Z,12.66
2022-09-09T03:46:37.403Z,12.79
2022-09-09T03:51:39.309Z,12.79
2022-09-09T03:56:42.434Z,12.85
2022-09-09T04:01:43.930Z,12.85
2022-09-09T04:06:45.264Z,12.87
2022-09-09T04:11:47.132Z,12.87
2022-09-09T04:16:48.445Z,12.91
2022-09-09T04:21:52.540Z,12.92
2022-09-09T04:26:53.907Z,12.94
2022-09-09T04:31:55.242Z,12.96
2022-09-09T04:36:57.888Z,13.05
2022-09-09T04:41:59.240Z,13.06
2022-09-09T04:47:00.577Z,13.03
2022-09-09T04:52:02.313Z,13.06
2022-09-09T04:57:03.941Z,13.12
2022-09-09T05:02:05.293Z,13.13
2022-09-09T05:07:07.597Z,13.20
2022-09-09T05:12:09.271Z,13.21
2022-09-09T05:17:11.006Z,13.26
2022-09-09T05:22:12.893Z,13.24
2022-09-09T05:27:14.178Z,13.30
2022-09-09T05:32:17.169Z,13.26
2022-09-09T05:37:19.251Z,13.32
2022-09-09T05:42:20.734Z,13.30
2022-09-09T05:47:22.098Z,13.32
2022-09-09T05:52:24.739Z,13.39
2022-09-09T05:57:26.154Z,13.54
2022-09-09T06:02:27.496Z,13.63
2022-09-09T06:07:28.965Z,13.73
2022-09-09T06:12:30.252Z,13.82
2022-09-09T06:17:31.657Z,13.87
2022-09-09T06:22:32.949Z,13.89
2022-09-09T06:27:46.046Z,13.89
2022-09-09T06:32:47.511Z,13.85
2022-09-09T06:37:49.821Z,14.02
2022-09-09T06:42:51.140Z,14.32
2022-09-09T06:47:55.325Z,14.37
2022-09-09T06:52:56.623Z,14.49
2022-09-09T06:57:57.959Z,14.51
2022-09-09T07:02:59.373Z,14.69
2022-09-09T07:08:00.718Z,14.64
2022-09-09T07:18:20.563Z,15.10
2022-09-09T07:23:21.965Z,15.06
2022-09-09T07:28:23.891Z,15.14
2022-09-09T07:33:25.995Z,15.27
2022-09-09T07:38:27.756Z,15.28
2022-09-09T07:43:29.088Z,15.15
2022-09-09T07:48:30.418Z,15.06
2022-09-09T07:53:31.966Z,15.15
2022-09-09T07:58:38.172Z,15.24
2022-09-09T08:03:39.853Z,15.11
2022-09-09T08:08:42.911Z,15.20
2022-09-09T08:13:44.774Z,15.21
2022-09-09T08:18:46.095Z,15.22
2022-09-09T08:23:48.241Z,15.23
2022-09-09T08:28:52.449Z,15.31
2022-09-09T08:33:53.798Z,15.41
2022-09-09T08:38:56.306Z,15.46
2022-09-09T08:44:21.163Z,15.40
2022-09-09T08:49:28.836Z,15.38
2022-09-09T08:54:51.296Z,15.48
2022-09-09T08:59:56.831Z,15.55
2022-09-09T09:05:07.546Z,15.62
2022-09-09T09:10:24.196Z,15.71
2022-09-09T09:15:37.264Z,15.79
2022-09-09T09:20:57.042Z,15.69
2022-09-09T09:26:01.039Z,15.70
2022-09-09T09:31:07.163Z,15.74
2022-09-09T09:36:09.656Z,15.71
2022-09-09T09:41:13.891Z,15.83
2022-09-09T09:46:21.033Z,16.19
2022-09-09T09:51:23.463Z,16.45
2022-09-09T09:56:31.088Z,16.29
2022-09-09T10:01:42.500Z,16.29
2022-09-09T10:06:43.886Z,16.34
2022-09-09T10:11:47.443Z,16.21
2022-09-09T10:16:53.319Z,16.19
2022-09-09T10:21:55.771Z,16.17
2022-09-09T10:27:06.562Z,16.14
2022-09-09T10:32:21.844Z,16.22
2022-09-09T10:37:38.369Z,16.12
2022-09-09T10:42:39.915Z,16.06
2022-09-09T10:47:49.604Z,16.21
2022-09-09T10:52:52.036Z,16.07
2022-09-09T10:57:55.089Z,15.82
2022-09-09T11:02:57.574Z,15.80
2022-09-09T11:08:04.812Z,15.80
2022-09-09T11:13:10.207Z,15.78
2022-09-09T11:18:18.986Z,15.47
2022-09-09T11:23:25.939Z,15.48
2022-09-09T11:28:45.934Z,15.62
2022-09-09T11:33:48.194Z,16.27
2022-09-09T11:38:53.284Z,16.57
2022-09-09T11:43:54.696Z,16.35
2022-09-09T11:49:04.632Z,16.40
2022-09-09T11:54:24.993Z,16.22
2022-09-09T11:59:28.574Z,16.20
2022-09-09T12:04:30.107Z,16.19
2022-09-09T12:09:41.944Z,16.22
2022-09-09T12:14:44.159Z,16.21
2022-09-09T12:19:45.551Z,16.30
2022-09-09T12:24:58.281Z,16.18
2022-09-09T12:30:04.778Z,16.16
2022-09-09T12:35:17.115Z,16.41
2022-09-09T12:40:33.321Z,16.48
2022-09-09T12:45:36.922Z,16.37
2022-09-09T12:50:49.173Z,16.35
2022-09-09T12:55:57.118Z,16.46
2022-09-09T13:01:00.764Z,16.57
2022-09-09T13:06:14.394Z,16.80
2022-09-09T13:11:18.353Z,16.75
2022-09-09T13:16:21.829Z,16.94
2022-09-09T13:21:33.934Z,16.80
2022-09-09T13:26:39.562Z,16.78
2022-09-09T13:31:41.298Z,16.85
2022-09-09T13:36:43.136Z,16.78
2022-09-09T13:41:45.411Z,16.70
2022-09-09T13:46:46.959Z,16.99
2022-09-09T13:51:53.263Z,17.08
2022-09-09T13:56:55.853Z,17.08
2022-09-09T14:01:57.673Z,17.32
2022-09-09T14:07:00.458Z,17.23
2022-09-09T14:12:01.841Z,17.22
2022-09-09T14:17:07.421Z,16.97
2022-09-09T14:22:09.544Z,16.92
2022-09-09T14:27:11.219Z,16.93
2022-09-09T14:32:13.066Z,16.83
2022-09-09T14:37:14.495Z,16.94
2022-09-09T14:42:15.881Z,17.09
2022-09-09T14:47:17.396Z,17.31
2022-09-09T14:52:18.750Z,17.23
2022-09-09T14:57:20.540Z,17.21
2022-09-09T15:02:21.975Z,17.06
2022-09-09T15:07:23.375Z,16.82
2022-09-09T15:12:31.068Z,16.57
2022-09-09T15:17:32.542Z,16.40
2022-09-09T15:22:34.827Z,16.22
2022-09-09T15:27:40.110Z,16.18
2022-09-09T15:32:41.461Z,16.28
2022-09-09T15:37:42.806Z,16.05
2022-09-09T15:42:46.294Z,16.13
2022-09-09T15:47:48.394Z,16.21
2022-09-09T15:52:49.845Z,16.06
2022-09-09T15:57:53.147Z,16.11
2022-09-09T16:02:54.716Z,16.24
2022-09-09T16:07:56.047Z,16.18
2022-09-09T16:12:57.567Z,16.26
2022-09-09T16:17:59.271Z,16.24
2022-09-09T16:23:02.731Z,16.33
2022-09-09T16:28:04.076Z,16.32
2022-09-09T16:33:05.570Z,16.31
2022-09-09T16:38:08.003Z,16.28
2022-09-09T16:43:12.201Z,16.39
2022-09-09T16:48:13.534Z,16.28
2022-09-09T16:53:15.972Z,16.35
2022-09-09T16:58:17.271Z,16.14
2022-09-09T17:03:18.569Z,16.23
2022-09-09T17:08:19.905Z,16.10
2022-09-09T17:13:21.230Z,15.94
2022-09-09T17:18:23.558Z,15.90
2022-09-09T17:23:25.028Z,15.71
2022-09-09T17:28:31.891Z,15.76
2022-09-09T17:33:34.204Z,15.50
2022-09-09T17:38:35.719Z,15.40
2022-09-09T17:43:38.453Z,15.37
2022-09-09T17:48:40.732Z,15.26
2022-09-09T17:53:47.275Z,15.21
2022-09-09T17:58:50.906Z,15.21
2022-09-09T18:03:52.328Z,15.08
2022-09-09T18:08:55.094Z,15.06
2022-09-09T18:13:57.482Z,15.06
2022-09-09T18:18:59.710Z,15.01
2022-09-09T18:24:04.943Z,15.06
2022-09-09T18:29:08.257Z,15.00
2022-09-09T18:34:11.364Z,14.92
2022-09-09T18:39:15.095Z,14.96
2022-09-09T18:44:18.030Z,14.89
2022-09-09T18:49:20.501Z,14.82
2022-09-09T18:54:23.816Z,14.74
2022-09-09T18:59:28.348Z,14.72
2022-09-09T19:04:31.662Z,14.67
2022-09-09T19:09:35.158Z,14.65
2022-09-09T19:14:39.018Z,14.60
2022-09-09T19:19:42.628Z,14.60
2022-09-09T19:24:45.842Z,14.51
2022-09-09T19:29:48.289Z,14.54
2022-09-09T19:34:54.394Z,14.56
2022-09-09T19:39:56.016Z,14.56
2022-09-09T19:45:02.415Z,14.55
2022-09-09T19:50:05.704Z,14.57
2022-09-09T19:55:07.237Z,14.60
2022-09-09T20:00:09.105Z,14.57
2022-09-09T20:05:10.576Z,14.58
2022-09-09T20:10:11.909Z,14.68
2022-09-09T20:15:13.317Z,14.65
2022-09-09T20:20:14.756Z,14.57
2022-09-09T20:25:16.201Z,14.53
2022-09-09T20:30:17.783Z,14.48
2022-09-09T20:35:19.140Z,14.46
2022-09-09T20:40:20.484Z,14.50
2022-09-09T20:45:21.922Z,14.50
2022-09-09T20:50:24.719Z,14.39
2022-09-09T20:55:26.539Z,14.43
2022-09-09T21:00:30.185Z,14.47
2022-09-09T21:05:32.083Z,14.34
2022-09-09T21:10:33.399Z,14.38
2022-09-09T21:15:35.116Z,14.35
2022-09-09T21:20:37.950Z,14.39
2022-09-09T21:25:39.482Z,14.43
2022-09-09T21:30:44.291Z,14.40
2022-09-09T21:35:46.247Z,14.42
2022-09-09T21:40:50.128Z,14.41
2022-09-09T21:45:51.533Z,14.36
2022-09-09T21:50:53.312Z,14.26
2022-09-09T21:56:00.481Z,14.26
2022-09-09T22:01:02.294Z,14.27
2022-09-09T22:06:05.614Z,14.22
2022-09-09T22:11:07.962Z,14.18
2022-09-09T22:16:14.178Z,14.15
2022-09-09T22:21:16.605Z,14.07
2022-09-09T22:26:17.960Z,14.03
2022-09-09T22:31:20.828Z,14.02
2022-09-09T22:36:22.407Z,14.03
2022-09-09T22:41:25.360Z,13.99
2022-09-09T22:46:26.856Z,13.99
2022-09-09T22:51:28.605Z,13.99
2022-09-09T22:56:29.981Z,13.97
2022-09-09T23:01:32.173Z,13.93
2022-09-09T23:06:33.661Z,13.94
2022-09-09T23:11:36.976Z,13.96
2022-09-09T23:16:39.739Z,13.95
2022-09-09T23:21:42.043Z,13.99
2022-09-09T23:26:44.731Z,14.04
2022-09-09T23:31:46.487Z,14.09
2022-09-09T23:36:47.828Z,14.13
2022-09-09T23:41:50.322Z,14.14
2022-09-09T23:46:51.672Z,14.17
2022-09-09T23:51:52.977Z,14.16
2022-09-09T23:56:54.446Z,14.16
